Latest  Newer  Older  Last 2 hours slideshow  Last 24 hours slideshow  Refresh every 5 minutes 
Current image  Latest image  Rain/snow radar  Cloud coverage sat images 

All time is UTC (add 2 hours to UTC in wintertime, 3 hours to UTC in DST for Latvia local time)

2019/06/15 20:20 EVRA 152020Z VRB02KT CAVOK 15/11 Q1017 NOSIG
2019/06/15 20:20 EVLA 152020Z 09003KT 9999 NSC 16/14 Q1015
2019/06/15 20:20 EVVA 152020Z AUTO 07005KT CAVOK 16/12 Q1016
2019/06/15 20:20 EYKA 152020Z 07006KT 040V100 CAVOK 19/10 Q1016
2019/06/15 20:20 EYPA 152020Z 08006KT CAVOK 20/12 Q1015
2019/06/15 20:20 EYSA 152020Z 07005KT 040V100 CAVOK 18/13 Q1017 BLU NOSIG
2019/06/15 20:20 EYVI 152020Z 07004KT CAVOK 19/10 Q1016 NOSIG
2019/06/15 07:50 EEKA 150750Z 30007KT CAVOK 20/13 Q1018
2019/06/15 20:31 EEKE 152031Z AUTO 34001KT 9999NDV NCD 13/12 Q1017
2019/06/15 12:50 EEPU 151250Z 21010KT CAVOK 21/16 Q1018
2019/06/15 20:20 EETN 152020Z 25007KT CAVOK 15/11 Q1016 NOSIG
2019/06/15 19:50 EETU 151950Z AUTO 28004KT 9999 NCD 16/13 Q1016
   RIGA AIRPORT     EVRA               56 55N  023 58E   10   X     T          6 LV
   LIEPAJA INTL     EVLA        26406  56 31N  021 06E    4   X                8 LV
   VENTPILS         EVVA               57 21N  021 33E    6   X                8 LV
   KAUNAS           EYKA               54 54N  023 55E   77   X     T          6 LT
   PALANGA INTL     EYPA               55 55N  021 03E   10   X                6 LT
   SIAULIAI INTL    EYSA               55 54N  023 24E  135   X     T          6 LT
   VILNIUS INTL     EYVI        26730  54 38N  025 17E  197   X     T          6 LT
   KARDLA           EEKA        26116  58 59N  022 50E    4   X                8 EE
   KURESSAARE       EEKE               58 14N  022 31E    4   X                8 EE
   PARNU            EEPU               58 25N  024 28E   14   X                8 EE
   TALLINN          EETN        26038  59 24N  024 49E   40   X     T          8 EE
   TARTU            EETU               58 19N  026 41E   67   X                8 EE